Time;durP1;ratioP1;P1;durP2;ratioP2;P2;SDS_P1;SDS_P2;PMS_P1;PMS_P2;Temp;Humidity;BMP_temperature;BMP_pressure;BME280_temperature;BME280_humidity;BME280_pressure;Samples;Min_cycle;Max_cycle;Signal;HPM_P1;HPM_P2
2021/03/19 00:00:48;;;;;;;7.32;2.40;;;21.80;90.30;;;;;;5071231;28;20049;-55
2021/03/19 00:03:15;;;;;;;5.95;2.20;;;21.80;90.20;;;;;;5070531;28;20028;-59
2021/03/19 00:05:43;;;;;;;5.55;2.00;;;21.90;90.30;;;;;;5069513;28;20502;-60
2021/03/19 00:08:10;;;;;;;10.43;2.90;;;21.90;90.20;;;;;;5070815;28;20060;-62
2021/03/19 00:10:38;;;;;;;6.13;2.08;;;21.90;90.10;;;;;;5068614;28;20163;-59
2021/03/19 00:13:10;;;;;;;6.00;2.20;;;21.90;90.10;;;;;;5070492;28;20103;-54
2021/03/19 00:15:38;;;;;;;4.97;2.00;;;22.00;90.00;;;;;;5070628;28;20047;-54
2021/03/19 00:18:07;;;;;;;7.05;2.72;;;22.00;89.90;;;;;;5070496;28;20021;-57
2021/03/19 00:20:38;;;;;;;4.75;2.00;;;22.00;89.80;;;;;;5070013;28;20021;-55
2021/03/19 00:23:07;;;;;;;7.47;2.08;;;22.00;89.70;;;;;;5068771;28;20020;-58
2021/03/19 00:25:36;;;;;;;5.35;1.98;;;22.00;89.70;;;;;;5070790;28;20021;-57
2021/03/19 00:28:05;;;;;;;7.10;2.35;;;22.00;89.60;;;;;;5070831;28;20029;-56
2021/03/19 00:30:34;;;;;;;7.90;2.45;;;22.10;89.60;;;;;;5073065;28;20058;-54
2021/03/19 00:33:02;;;;;;;6.57;2.22;;;22.10;89.50;;;;;;5074606;28;20021;-62
2021/03/19 00:35:29;;;;;;;7.22;2.60;;;22.10;89.20;;;;;;5074699;28;20406;-57
2021/03/19 00:37:57;;;;;;;5.88;2.60;;;22.10;89.40;;;;;;5074965;28;20032;-59
2021/03/19 00:40:24;;;;;;;6.97;1.92;;;22.10;89.30;;;;;;5074640;28;20052;-59
2021/03/19 00:42:52;;;;;;;6.32;2.17;;;22.10;89.20;;;;;;5074374;28;20032;-58
2021/03/19 00:45:19;;;;;;;7.22;2.55;;;22.10;89.20;;;;;;5074225;28;20340;-59
2021/03/19 00:47:47;;;;;;;7.47;3.10;;;22.20;89.10;;;;;;5074356;28;20094;-57
2021/03/19 00:50:16;;;;;;;7.72;2.20;;;22.20;88.90;;;;;;5074298;28;20479;-53
2021/03/19 00:52:43;;;;;;;5.85;2.53;;;22.20;88.80;;;;;;5074120;28;20024;-55
2021/03/19 00:55:13;;;;;;;5.38;2.15;;;22.20;88.90;;;;;;5074120;28;20535;-53
2021/03/19 00:57:40;;;;;;;9.07;2.40;;;22.20;88.80;;;;;;5074294;28;20040;-52
2021/03/19 01:00:10;;;;;;;9.48;2.75;;;22.30;88.50;;;;;;5073984;28;20025;-57
2021/03/19 01:02:38;;;;;;;6.95;2.63;;;22.30;88.60;;;;;;5074037;28;20486;-59
2021/03/19 01:05:11;;;;;;;13.90;3.55;;;22.30;88.70;;;;;;5077623;28;20497;-58
2021/03/19 01:07:39;;;;;;;12.77;4.28;;;22.30;89.00;;;;;;5094492;28;20024;-59
2021/03/19 01:10:10;;;;;;;17.67;4.53;;;22.30;88.80;;;;;;5076757;28;20040;-59
2021/03/19 01:12:38;;;;;;;16.40;5.03;;;22.40;88.90;;;;;;5073754;28;20036;-60
2021/03/19 01:15:07;;;;;;;20.58;4.50;;;22.40;88.70;;;;;;5073658;28;20024;-60
2021/03/19 01:17:35;;;;;;;23.17;6.07;;;22.30;88.60;;;;;;5073869;28;20024;-61
2021/03/19 01:20:07;;;;;;;23.02;6.78;;;22.40;88.60;;;;;;5073746;28;20076;-60
2021/03/19 01:22:34;;;;;;;23.58;5.78;;;22.40;88.60;;;;;;5073578;28;20028;-61
2021/03/19 01:25:04;;;;;;;22.13;7.15;;;22.40;88.40;;;;;;5073538;28;20061;-60
2021/03/19 01:27:32;;;;;;;23.33;5.70;;;22.40;88.40;;;;;;5073827;28;20082;-60
2021/03/19 01:29:59;;;;;;;18.73;5.22;;;22.50;88.50;;;;;;5073849;28;20094;-61
2021/03/19 01:32:27;;;;;;;22.48;5.90;;;22.50;88.40;;;;;;5073648;28;20085;-53
2021/03/19 01:34:54;;;;;;;18.20;4.68;;;22.50;88.30;;;;;;5073334;28;20391;-59
2021/03/19 01:37:21;;;;;;;18.60;4.70;;;22.50;87.90;;;;;;5073936;28;20110;-58
2021/03/19 01:39:49;;;;;;;22.98;6.22;;;22.50;88.10;;;;;;5073646;28;20031;-62
2021/03/19 01:42:16;;;;;;;19.00;4.90;;;22.50;88.00;;;;;;5072292;28;20454;-62
2021/03/19 01:45:27;;;;;;;19.65;5.70;;;22.60;87.90;;;;;;5073323;28;20052;-62
2021/03/19 01:48:31;;;;;;;21.13;6.15;;;22.60;88.10;;;;;;5073783;28;20029;-61
2021/03/19 01:51:34;;;;;;;27.15;5.97;;;22.60;88.30;;;;;;5073680;28;20203;-58
2021/03/19 01:54:38;;;;;;;28.42;6.38;;;22.60;88.40;;;;;;5073013;28;20021;-52
2021/03/19 01:57:42;;;;;;;26.88;7.65;;;22.80;87.90;;;;;;5073692;28;20025;-61
2021/03/19 02:00:45;;;;;;;21.95;5.72;;;22.90;87.40;;;;;;5073064;28;20521;-58
2021/03/19 02:03:49;;;;;;;28.42;7.75;;;23.10;86.90;;;;;;5072995;28;20553;-58
2021/03/19 02:06:53;;;;;;;31.30;8.00;;;23.10;86.20;;;;;;5072793;28;20056;-62
2021/03/19 02:09:57;;;;;;;26.40;6.78;;;23.10;86.40;;;;;;5072487;28;20399;-60
2021/03/19 02:13:01;;;;;;;19.92;6.57;;;23.20;85.80;;;;;;5072947;28;20032;-60
2021/03/19 02:16:05;;;;;;;30.75;7.95;;;23.30;85.70;;;;;;5072623;28;20071;-62
2021/03/19 02:19:08;;;;;;;21.00;6.82;;;23.30;85.50;;;;;;5072322;28;20488;-57
2021/03/19 02:22:12;;;;;;;28.10;7.85;;;23.40;85.10;;;;;;5072649;28;20032;-62
2021/03/19 02:25:16;;;;;;;20.35;6.97;;;23.50;84.90;;;;;;5072220;28;20025;-58
2021/03/19 02:28:23;;;;;;;20.58;6.07;;;23.50;84.70;;;;;;5072378;28;20039;-60
2021/03/19 02:31:14;;;;;;;12.50;5.38;;;23.60;84.60;;;;;;5072729;28;20035;-60
2021/03/19 02:34:00;;;;;;;19.33;6.32;;;23.70;84.70;;;;;;5072954;28;20032;-59
2021/03/19 02:36:29;;;;;;;24.58;7.03;;;23.70;84.40;;;;;;5072228;28;20478;-61
2021/03/19 02:38:57;;;;;;;24.23;7.55;;;23.70;84.10;;;;;;5072224;28;20039;-59
2021/03/19 02:41:24;;;;;;;22.15;7.18;;;23.70;84.10;;;;;;5072599;28;20104;-59
2021/03/19 02:43:52;;;;;;;22.45;6.47;;;23.80;83.80;;;;;;5072706;28;20025;-62
2021/03/19 02:46:19;;;;;;;20.45;6.95;;;23.80;83.60;;;;;;5071901;28;20025;-57
2021/03/19 02:48:46;;;;;;;25.58;7.20;;;23.80;83.60;;;;;;5071884;28;20029;-57
2021/03/19 02:51:15;;;;;;;23.80;6.40;;;23.80;83.70;;;;;;5072604;28;20429;-54
2021/03/19 02:53:42;;;;;;;19.30;5.82;;;23.80;83.80;;;;;;5071825;28;20402;-60
2021/03/19 02:56:11;;;;;;;23.08;7.00;;;23.90;83.60;;;;;;5071663;28;20473;-59
2021/03/19 02:58:39;;;;;;;19.15;6.70;;;23.90;83.60;;;;;;5070428;28;20483;-59
2021/03/19 03:01:07;;;;;;;17.58;5.78;;;23.90;84.00;;;;;;5071990;28;20590;-60
2021/03/19 03:03:35;;;;;;;21.15;6.10;;;23.90;83.40;;;;;;5071139;28;20040;-59
2021/03/19 03:06:03;;;;;;;19.65;5.97;;;23.90;84.20;;;;;;5071417;28;20487;-62
2021/03/19 03:08:32;;;;;;;22.48;6.95;;;23.90;83.60;;;;;;5071582;28;20029;-55
2021/03/19 03:11:00;;;;;;;18.92;6.30;;;23.90;83.40;;;;;;5072003;28;20029;-62
2021/03/19 03:13:28;;;;;;;20.00;6.85;;;23.80;83.60;;;;;;5072029;28;20460;-56
2021/03/19 03:15:55;;;;;;;16.75;5.13;;;23.80;83.80;;;;;;5071616;28;20040;-52
2021/03/19 03:18:22;;;;;;;18.75;6.00;;;23.70;84.70;;;;;;5071925;28;20055;-58
2021/03/19 03:21:01;;;;;;;17.30;6.32;;;23.60;84.50;;;;;;5071262;28;20029;-57
2021/03/19 03:23:29;;;;;;;20.70;5.70;;;23.60;84.80;;;;;;5071103;28;20021;-57
2021/03/19 03:25:57;;;;;;;13.80;5.32;;;23.60;84.70;;;;;;5071469;28;20056;-55
2021/03/19 03:28:26;;;;;;;19.77;6.05;;;23.60;85.00;;;;;;5071540;28;20023;-60
2021/03/19 03:30:57;;;;;;;19.27;6.28;;;23.40;85.30;;;;;;5071530;28;20081;-58
2021/03/19 03:33:25;;;;;;;19.45;5.53;;;23.40;85.50;;;;;;5071721;28;20024;-58
2021/03/19 03:35:53;;;;;;;17.77;6.13;;;23.30;85.60;;;;;;5069933;28;20024;-57
2021/03/19 03:38:25;;;;;;;16.23;4.82;;;23.30;85.90;;;;;;5071527;28;20020;-50
2021/03/19 03:40:57;;;;;;;16.30;4.72;;;23.30;86.60;;;;;;5071571;28;20024;-54
2021/03/19 03:43:25;;;;;;;16.60;4.95;;;23.20;86.30;;;;;;5071643;28;20032;-61
2021/03/19 03:45:52;;;;;;;20.42;5.88;;;23.20;86.60;;;;;;5071223;28;20380;-58
2021/03/19 03:48:23;;;;;;;16.00;5.25;;;23.10;86.90;;;;;;5070766;28;20128;-60
2021/03/19 03:50:50;;;;;;;15.18;5.60;;;23.10;87.00;;;;;;5070652;28;20021;-58
2021/03/19 03:53:18;;;;;;;16.73;5.10;;;23.10;87.40;;;;;;5070673;28;20032;-58
2021/03/19 03:55:49;;;;;;;19.95;5.55;;;23.10;88.00;;;;;;5070803;28;20343;-61
2021/03/19 03:58:18;;;;;;;16.05;5.38;;;23.10;88.20;;;;;;5071431;28;20017;-59
2021/03/19 04:00:46;;;;;;;14.57;4.70;;;23.10;88.10;;;;;;5071317;28;20021;-57
2021/03/19 04:03:14;;;;;;;16.88;5.03;;;23.00;87.90;;;;;;5071163;28;20108;-55
2021/03/19 04:05:45;;;;;;;13.48;4.60;;;23.00;87.90;;;;;;5082364;28;20094;-58
2021/03/19 04:08:19;;;;;;;15.48;4.85;;;23.10;88.50;;;;;;5094807;28;20731;-60
2021/03/19 04:10:48;;;;;;;18.10;5.38;;;23.10;87.80;;;;;;5054832;28;20036;-57
2021/03/19 04:13:16;;;;;;;16.58;5.13;;;23.10;87.80;;;;;;5074856;28;20032;-56
2021/03/19 04:15:48;;;;;;;13.55;4.72;;;23.10;87.80;;;;;;5075268;28;20459;-56
2021/03/19 04:18:17;;;;;;;15.20;4.88;;;23.10;88.30;;;;;;5074868;28;20043;-55
2021/03/19 04:20:47;;;;;;;9.93;4.03;;;23.10;87.50;;;;;;5075090;28;20567;-56
2021/03/19 04:23:15;;;;;;;13.70;4.70;;;23.10;87.40;;;;;;5075056;28;20115;-59
2021/03/19 04:25:42;;;;;;;12.55;4.60;;;23.10;87.50;;;;;;5075024;28;20040;-60
2021/03/19 04:28:14;;;;;;;13.23;4.38;;;23.10;87.50;;;;;;5074867;28;20374;-60
2021/03/19 04:30:44;;;;;;;16.95;4.70;;;23.10;87.60;;;;;;5074810;28;20032;-61
2021/03/19 04:33:18;;;;;;;9.25;3.75;;;23.20;87.30;;;;;;5074690;28;20025;-61
2021/03/19 04:36:05;;;;;;;14.80;4.45;;;23.20;87.30;;;;;;5074564;28;20056;-61
2021/03/19 04:38:32;;;;;;;11.27;3.83;;;23.20;87.30;;;;;;5074118;28;20078;-61
2021/03/19 04:40:59;;;;;;;14.20;4.22;;;23.20;87.00;;;;;;5073741;28;20047;-61
2021/03/19 04:43:27;;;;;;;12.73;4.47;;;23.20;86.40;;;;;;5055540;28;20111;-61
2021/03/19 04:45:55;;;;;;;11.55;4.03;;;23.20;87.10;;;;;;5073949;28;20063;-62
2021/03/19 04:48:22;;;;;;;12.35;4.13;;;23.20;87.00;;;;;;5074109;28;20025;-59
2021/03/19 04:50:50;;;;;;;12.68;4.20;;;23.20;87.10;;;;;;5073839;28;20494;-60
2021/03/19 04:53:17;;;;;;;11.82;4.55;;;23.20;86.60;;;;;;5073829;28;20036;-59
2021/03/19 04:55:45;;;;;;;13.30;5.25;;;23.20;87.30;;;;;;5074309;28;20075;-58
2021/03/19 04:58:12;;;;;;;14.25;4.22;;;23.10;87.20;;;;;;5073937;28;20029;-61
2021/03/19 05:00:39;;;;;;;12.48;4.78;;;23.20;87.20;;;;;;5073604;28;20112;-59
2021/03/19 05:03:07;;;;;;;10.70;4.22;;;23.20;87.40;;;;;;5073982;28;20368;-56
2021/03/19 05:05:35;;;;;;;14.23;5.00;;;23.10;87.30;;;;;;5073831;28;20080;-62
2021/03/19 05:08:03;;;;;;;20.50;5.18;;;23.20;87.30;;;;;;5073665;28;20060;-57
2021/03/19 05:10:36;;;;;;;11.20;3.78;;;23.10;86.90;;;;;;5055872;28;20033;-58
2021/03/19 05:13:05;;;;;;;12.60;4.47;;;23.20;87.30;;;;;;5074057;28;20027;-61
2021/03/19 05:15:34;;;;;;;13.32;4.15;;;23.10;87.40;;;;;;5073764;28;20051;-58
2021/03/19 05:18:01;;;;;;;9.32;3.40;;;23.10;87.50;;;;;;5073691;28;20024;-59
2021/03/19 05:20:30;;;;;;;9.77;3.35;;;23.10;87.60;;;;;;5073822;28;20025;-59
2021/03/19 05:22:57;;;;;;;9.20;3.45;;;23.10;87.60;;;;;;5073521;28;20056;-60
2021/03/19 05:25:29;;;;;;;8.93;3.47;;;23.10;87.80;;;;;;5073646;28;20387;-59
2021/03/19 05:27:57;;;;;;;11.27;3.55;;;23.10;87.80;;;;;;5073337;28;20081;-54
2021/03/19 05:30:26;;;;;;;14.57;3.65;;;23.00;87.90;;;;;;5073467;28;20466;-59
2021/03/19 05:32:54;;;;;;;10.43;3.65;;;23.00;87.90;;;;;;5072617;28;20078;-57
2021/03/19 05:35:23;;;;;;;15.75;4.25;;;23.00;87.90;;;;;;5073859;28;20032;-61
2021/03/19 05:37:51;;;;;;;8.93;3.55;;;23.00;88.00;;;;;;5072762;28;20104;-60
2021/03/19 05:40:42;;;;;;;10.25;3.30;;;23.00;88.70;;;;;;5073396;28;20028;-60
2021/03/19 05:43:23;;;;;;;10.97;3.20;;;23.00;88.10;;;;;;5073233;28;20048;-61
2021/03/19 05:46:06;;;;;;;8.85;3.28;;;23.00;88.20;;;;;;5073294;28;20029;-58
2021/03/19 05:48:39;;;;;;;9.85;3.40;;;23.00;88.20;;;;;;5072887;28;20025;-58
2021/03/19 05:51:15;;;;;;;10.35;3.58;;;23.00;88.00;;;;;;5073553;28;20604;-51
2021/03/19 05:53:45;;;;;;;10.05;3.88;;;23.00;88.10;;;;;;5073049;28;20043;-58
2021/03/19 05:56:18;;;;;;;12.10;3.67;;;23.00;88.30;;;;;;5073108;28;20025;-60
2021/03/19 05:58:46;;;;;;;9.60;3.47;;;23.00;88.30;;;;;;5072558;28;20393;-59
2021/03/19 06:01:14;;;;;;;9.07;3.50;;;23.00;88.20;;;;;;5072902;28;20017;-61
2021/03/19 06:03:42;;;;;;;10.10;3.65;;;23.00;88.30;;;;;;5072985;28;20093;-59
2021/03/19 06:06:11;;;;;;;10.98;3.47;;;23.00;88.40;;;;;;5072820;28;20463;-57
2021/03/19 06:08:42;;;;;;;9.38;3.63;;;23.00;88.40;;;;;;5072012;28;20485;-57
2021/03/19 06:11:27;;;;;;;8.52;3.42;;;23.00;88.40;;;;;;5072908;28;20028;-58
2021/03/19 06:13:57;;;;;;;10.13;3.40;;;23.00;88.40;;;;;;5072914;28;20040;-56
2021/03/19 06:17:02;;;;;;;10.18;3.38;;;23.00;88.30;;;;;;5073460;28;20374;-57
2021/03/19 06:19:48;;;;;;;10.80;3.35;;;23.00;88.20;;;;;;5067319;28;20052;-52
2021/03/19 06:22:30;;;;;;;9.88;3.33;;;23.00;88.20;;;;;;5054859;28;20030;-53
2021/03/19 06:25:22;;;;;;;7.43;3.00;;;23.00;87.90;;;;;;5072617;28;20062;-60
2021/03/19 06:27:55;;;;;;;6.88;3.13;;;23.00;87.90;;;;;;5054305;28;20040;-60
2021/03/19 06:30:33;;;;;;;9.85;3.50;;;23.00;88.00;;;;;;5072476;28;20325;-55
2021/03/19 06:33:16;;;;;;;10.15;3.08;;;23.00;87.90;;;;;;5072132;28;20051;-56
2021/03/19 06:35:48;;;;;;;10.00;3.70;;;23.00;88.00;;;;;;5072239;28;20035;-56
2021/03/19 06:38:34;;;;;;;9.98;3.03;;;23.00;87.80;;;;;;5072357;28;20052;-58
2021/03/19 06:41:26;;;;;;;11.90;4.18;;;23.10;87.30;;;;;;5071843;28;20536;-56
2021/03/19 06:44:11;;;;;;;7.75;3.17;;;23.00;87.80;;;;;;5072331;28;20025;-60
2021/03/19 06:46:51;;;;;;;9.00;3.38;;;23.10;87.70;;;;;;5072437;28;20028;-61
2021/03/19 06:49:20;;;;;;;7.95;3.05;;;23.00;87.70;;;;;;5071750;28;20114;-59
2021/03/19 06:51:49;;;;;;;13.02;3.55;;;23.00;87.70;;;;;;5071703;28;20135;-53
2021/03/19 06:54:25;;;;;;;9.10;3.35;;;23.00;87.60;;;;;;5053778;28;20028;-59
2021/03/19 06:57:07;;;;;;;7.60;2.63;;;23.00;87.90;;;;;;5071570;28;20040;-59
2021/03/19 06:59:51;;;;;;;9.30;2.95;;;23.00;88.00;;;;;;5053813;28;20024;-60
2021/03/19 07:02:40;;;;;;;13.32;3.20;;;23.00;88.10;;;;;;5072002;28;20527;-59
2021/03/19 07:05:41;;;;;;;8.23;3.03;;;23.00;87.70;;;;;;5069452;28;20056;-61
2021/03/19 07:08:23;;;;;;;7.88;3.20;;;23.00;88.10;;;;;;5069548;28;20063;-60
2021/03/19 07:10:53;;;;;;;7.68;3.45;;;22.90;88.00;;;;;;5066424;28;20123;-59
2021/03/19 07:13:53;;;;;;;10.20;3.08;;;22.90;88.10;;;;;;5070565;28;20070;-60
2021/03/19 07:16:28;;;;;;;9.35;3.08;;;22.90;87.90;;;;;;5070942;28;20032;-56
2021/03/19 07:19:14;;;;;;;7.68;2.80;;;22.90;87.90;;;;;;5071018;28;20111;-58
2021/03/19 07:22:13;;;;;;;11.07;3.42;;;22.90;88.20;;;;;;5071273;28;20021;-60
2021/03/19 07:25:10;;;;;;;8.40;3.25;;;22.90;88.20;;;;;;5071634;28;20580;-57
2021/03/19 07:28:15;;;;;;;9.82;4.07;;;22.90;88.30;;;;;;5070408;28;20479;-53
2021/03/19 07:30:51;;;;;;;7.38;2.92;;;22.90;88.40;;;;;;5070801;28;20424;-53
2021/03/19 07:33:26;;;;;;;8.52;2.95;;;22.80;88.30;;;;;;5071556;28;20049;-60
2021/03/19 07:36:18;;;;;;;11.95;3.20;;;22.80;88.40;;;;;;5071908;28;20024;-56
2021/03/19 07:39:12;;;;;;;10.02;3.63;;;22.80;88.40;;;;;;5070897;28;20104;-60
2021/03/19 07:41:48;;;;;;;7.20;2.80;;;22.80;88.60;;;;;;5071607;28;20497;-57
2021/03/19 07:44:35;;;;;;;7.55;2.55;;;22.80;88.70;;;;;;5071919;28;20062;-57
2021/03/19 07:47:10;;;;;;;6.88;2.42;;;22.80;88.60;;;;;;5071828;28;20025;-59
2021/03/19 07:50:15;;;;;;;8.65;3.05;;;22.80;88.60;;;;;;5071540;28;20037;-58
2021/03/19 07:53:19;;;;;;;9.10;3.40;;;22.70;88.60;;;;;;5071095;28;20028;-56
2021/03/19 07:56:16;;;;;;;11.02;3.15;;;22.70;88.60;;;;;;5071732;28;20017;-60
2021/03/19 07:59:16;;;;;;;6.65;2.60;;;22.70;88.50;;;;;;5071765;28;20031;-57
2021/03/19 08:01:46;;;;;;;9.18;3.25;;;22.70;88.70;;;;;;5071843;28;20086;-57
2021/03/19 08:04:31;;;;;;;12.23;2.97;;;22.70;88.30;;;;;;5071483;28;20456;-55
2021/03/19 08:07:18;;;;;;;12.20;3.22;;;22.70;88.70;;;;;;5090606;28;20059;-61
2021/03/19 08:10:18;;;;;;;6.82;2.40;;;22.70;88.80;;;;;;5073279;28;20116;-58
2021/03/19 08:12:53;;;;;;;8.52;2.95;;;22.70;88.90;;;;;;5091602;28;20024;-53
2021/03/19 08:15:45;;;;;;;8.70;2.88;;;22.70;89.00;;;;;;5074413;28;20462;-57
2021/03/19 08:18:30;;;;;;;7.85;2.67;;;22.60;89.00;;;;;;5081790;28;20025;-56
2021/03/19 08:21:31;;;;;;;8.02;2.55;;;22.60;89.10;;;;;;5070871;28;20025;-58
2021/03/19 08:24:19;;;;;;;6.60;2.17;;;22.60;89.00;;;;;;5065614;28;20072;-61
2021/03/19 08:26:52;;;;;;;7.00;2.67;;;22.60;89.20;;;;;;5070938;28;20025;-58
2021/03/19 08:29:32;;;;;;;8.00;2.88;;;22.60;89.40;;;;;;5071595;28;20094;-55
2021/03/19 08:32:16;;;;;;;7.97;3.25;;;22.60;89.20;;;;;;5071542;28;20033;-63
2021/03/19 08:34:47;;;;;;;7.95;2.42;;;22.50;89.30;;;;;;5071648;28;20375;-57
2021/03/19 08:37:46;;;;;;;9.57;2.97;;;22.50;89.50;;;;;;5070631;28;20489;-61
2021/03/19 08:40:35;;;;;;;9.52;2.80;;;22.50;89.40;;;;;;5028900;28;20086;-54
2021/03/19 08:43:06;;;;;;;6.72;2.45;;;22.50;89.50;;;;;;5071328;28;20110;-58
2021/03/19 08:45:34;;;;;;;8.77;2.65;;;22.40;89.70;;;;;;5071447;28;20467;-59
2021/03/19 08:48:04;;;;;;;7.55;2.13;;;22.40;89.80;;;;;;5071382;28;20352;-58
2021/03/19 08:50:39;;;;;;;6.75;2.30;;;22.40;90.00;;;;;;5071021;28;20372;-55
2021/03/19 08:53:08;;;;;;;8.63;2.53;;;22.40;90.00;;;;;;5074418;28;20036;-62
2021/03/19 08:55:37;;;;;;;8.10;2.33;;;22.30;90.00;;;;;;5074711;28;20029;-55
2021/03/19 08:58:29;;;;;;;5.45;2.05;;;22.40;90.00;;;;;;5075071;28;20099;-50
2021/03/19 09:01:07;;;;;;;8.18;2.80;;;22.30;90.00;;;;;;5074891;28;20031;-63
2021/03/19 09:03:49;;;;;;;8.65;2.67;;;22.30;90.10;;;;;;5074633;28;20082;-60
2021/03/19 09:06:18;;;;;;;7.43;2.60;;;22.30;90.10;;;;;;5073166;28;20507;-59
2021/03/19 09:08:56;;;;;;;7.03;2.40;;;22.30;90.20;;;;;;5074448;28;20491;-60
2021/03/19 09:11:45;;;;;;;7.32;2.15;;;22.30;90.20;;;;;;5056140;28;20705;-59
2021/03/19 09:14:12;;;;;;;6.63;2.20;;;22.30;90.30;;;;;;5056300;28;20160;-56
2021/03/19 09:16:59;;;;;;;6.88;2.45;;;22.30;90.50;;;;;;5073767;28;20028;-61
2021/03/19 09:19:39;;;;;;;7.55;2.72;;;22.30;90.40;;;;;;5073838;28;20052;-62
2021/03/19 09:22:22;;;;;;;5.85;2.55;;;22.30;90.50;;;;;;5073231;28;20108;-62
2021/03/19 09:25:17;;;;;;;9.90;2.55;;;22.30;90.50;;;;;;5073820;28;20103;-62
2021/03/19 09:28:00;;;;;;;8.48;2.88;;;22.30;90.50;;;;;;5071582;28;20052;-61
2021/03/19 09:30:50;;;;;;;7.47;2.90;;;22.30;90.50;;;;;;5073783;28;20087;-61
2021/03/19 09:33:45;;;;;;;6.57;1.98;;;22.30;90.50;;;;;;5059330;28;20036;-64
2021/03/19 09:36:51;;;;;;;6.97;2.40;;;22.30;90.50;;;;;;5055581;28;20025;-61
2021/03/19 09:42:50;;;;;;;7.65;2.80;;;22.20;90.50;;;;;;5074256;28;20059;-60
2021/03/19 09:45:25;;;;;;;6.88;2.60;;;22.20;90.50;;;;;;5073979;28;20120;-60
2021/03/19 09:48:21;;;;;;;5.95;2.03;;;22.20;90.50;;;;;;5073689;28;20421;-59
2021/03/19 09:50:58;;;;;;;6.65;2.33;;;22.20;90.50;;;;;;5072829;28;20050;-60
2021/03/19 09:53:35;;;;;;;5.82;2.20;;;22.20;90.50;;;;;;5055472;28;20097;-61
2021/03/19 09:56:16;;;;;;;5.50;2.30;;;22.20;90.50;;;;;;5055843;28;20028;-61
2021/03/19 09:58:52;;;;;;;9.27;2.40;;;22.20;90.50;;;;;;5073097;28;20035;-57
2021/03/19 10:01:32;;;;;;;8.25;2.72;;;22.20;90.50;;;;;;5073513;28;20528;-59
2021/03/19 10:04:03;;;;;;;5.50;2.17;;;22.20;90.50;;;;;;5072929;28;20037;-64
2021/03/19 10:06:41;;;;;;;7.82;2.50;;;22.20;90.50;;;;;;5072378;28;20045;-59
2021/03/19 10:09:12;;;;;;;8.55;2.67;;;22.20;90.50;;;;;;5070855;28;20070;-58
2021/03/19 10:15:25;;;;;;;7.57;2.63;;;22.20;90.50;;;;;;5064885;28;20569;-58
2021/03/19 10:17:58;;;;;;;5.15;1.92;;;22.20;90.50;;;;;;5073088;28;20398;-63
2021/03/19 10:20:36;;;;;;;9.25;2.70;;;22.20;90.50;;;;;;5072739;28;20050;-59
2021/03/19 10:23:14;;;;;;;5.07;2.17;;;22.10;90.40;;;;;;5072480;28;20083;-56
2021/03/19 10:25:45;;;;;;;10.18;3.00;;;22.10;90.40;;;;;;5073204;28;20021;-61
2021/03/19 10:28:24;;;;;;;7.95;2.58;;;22.10;90.40;;;;;;5072888;28;20039;-60
2021/03/19 10:31:01;;;;;;;9.20;1.95;;;22.10;90.40;;;;;;5072572;28;20041;-62
2021/03/19 10:33:31;;;;;;;7.07;2.28;;;22.10;90.40;;;;;;5072324;28;20040;-59
2021/03/19 10:36:02;;;;;;;6.28;2.67;;;22.10;90.40;;;;;;5072841;28;20048;-61
2021/03/19 10:38:35;;;;;;;12.23;3.38;;;22.10;90.40;;;;;;5072556;28;20108;-58
2021/03/19 10:41:12;;;;;;;6.85;2.15;;;22.10;90.40;;;;;;5072529;28;20511;-60
2021/03/19 10:43:50;;;;;;;5.53;1.80;;;22.10;90.40;;;;;;5072333;28;20428;-57
2021/03/19 10:47:06;;;;;;;5.72;2.35;;;22.10;90.40;;;;;;5072305;28;20046;-60
2021/03/19 10:49:59;;;;;;;4.60;1.77;;;22.00;90.40;;;;;;5041564;28;20477;-59
2021/03/19 10:52:38;;;;;;;6.57;1.90;;;22.00;90.40;;;;;;5071870;28;20526;-58
2021/03/19 10:55:15;;;;;;;3.13;1.92;;;22.00;90.50;;;;;;5072102;28;20038;-60
2021/03/19 10:57:43;;;;;;;8.07;2.60;;;22.00;90.50;;;;;;5072370;28;20028;-62
2021/03/19 11:00:37;;;;;;;5.57;2.10;;;22.00;90.50;;;;;;5072508;28;20048;-61
2021/03/19 11:03:06;;;;;;;7.28;2.17;;;22.00;90.50;;;;;;5072179;28;20020;-62
2021/03/19 11:05:57;;;;;;;6.93;2.42;;;22.00;90.50;;;;;;5071863;28;20048;-58
2021/03/19 11:08:24;;;;;;;8.50;2.42;;;22.00;90.50;;;;;;5072266;28;20028;-58
2021/03/19 11:10:53;;;;;;;5.78;2.00;;;21.90;90.60;;;;;;5071591;28;20046;-62
2021/03/19 11:13:31;;;;;;;4.65;1.83;;;21.90;90.60;;;;;;5071639;28;20091;-58
2021/03/19 11:16:05;;;;;;;7.30;2.53;;;21.90;90.60;;;;;;5072567;28;20123;-62
2021/03/19 11:18:39;;;;;;;4.63;1.77;;;21.90;90.60;;;;;;5072583;28;20031;-57
2021/03/19 11:21:09;;;;;;;5.82;2.45;;;21.90;90.60;;;;;;5071725;28;20024;-60
2021/03/19 11:23:39;;;;;;;4.85;1.67;;;21.90;90.60;;;;;;5071080;28;20035;-62
2021/03/19 11:26:29;;;;;;;6.90;1.85;;;21.90;90.60;;;;;;5054382;28;20189;-61
2021/03/19 11:29:36;;;;;;;5.97;2.05;;;21.90;90.60;;;;;;5072157;28;20068;-63
2021/03/19 11:32:07;;;;;;;4.53;2.17;;;21.90;90.60;;;;;;5058319;28;20033;-63
2021/03/19 11:34:40;;;;;;;5.97;2.47;;;21.90;90.60;;;;;;5071545;28;20025;-51
2021/03/19 11:37:37;;;;;;;6.78;2.53;;;21.90;90.60;;;;;;5071726;28;20036;-60
2021/03/19 11:40:24;;;;;;;6.07;2.45;;;21.90;90.60;;;;;;5071462;28;20028;-62
2021/03/19 11:42:59;;;;;;;7.15;2.15;;;21.90;90.60;;;;;;5071147;28;20044;-59
2021/03/19 11:45:39;;;;;;;4.80;2.33;;;21.90;90.70;;;;;;5071390;28;20081;-59
2021/03/19 11:48:15;;;;;;;5.93;2.08;;;21.90;90.60;;;;;;5071868;28;20027;-61
2021/03/19 11:50:49;;;;;;;4.75;1.80;;;21.90;90.60;;;;;;5071283;28;20062;-59
2021/03/19 11:53:27;;;;;;;5.25;1.95;;;21.90;90.70;;;;;;5071446;28;20036;-59
2021/03/19 11:55:57;;;;;;;8.13;2.28;;;21.90;90.60;;;;;;5071429;28;20048;-56
2021/03/19 11:58:27;;;;;;;6.00;2.25;;;21.90;90.60;;;;;;5071569;28;20016;-62
2021/03/19 12:00:55;;;;;;;5.43;2.00;;;21.90;90.60;;;;;;5071572;28;20028;-61
2021/03/19 12:03:52;;;;;;;5.95;1.77;;;21.90;90.60;;;;;;5071787;28;20482;-62
2021/03/19 12:06:23;;;;;;;7.10;2.33;;;21.90;90.60;;;;;;5071270;28;20072;-62
2021/03/19 12:08:51;;;;;;;6.55;2.35;;;21.90;90.60;;;;;;5071475;28;20470;-60
2021/03/19 12:11:26;;;;;;;8.23;2.30;;;21.80;90.60;;;;;;5070968;28;20081;-57
2021/03/19 12:13:55;;;;;;;5.43;1.98;;;21.90;90.60;;;;;;5071234;28;20037;-61
2021/03/19 12:16:23;;;;;;;6.88;2.00;;;21.80;90.50;;;;;;5071536;28;20017;-63
2021/03/19 12:18:51;;;;;;;4.78;1.80;;;21.90;90.60;;;;;;5071501;28;20108;-62
2021/03/19 12:21:19;;;;;;;6.03;2.05;;;21.80;90.50;;;;;;5071569;28;20501;-62
2021/03/19 12:23:47;;;;;;;7.05;2.15;;;21.90;90.60;;;;;;5071396;28;20144;-62
2021/03/19 12:26:14;;;;;;;4.82;2.15;;;21.90;90.60;;;;;;5073094;28;20351;-58
2021/03/19 12:28:41;;;;;;;6.07;2.25;;;21.90;90.60;;;;;;5075622;28;20421;-59
2021/03/19 12:31:11;;;;;;;7.45;2.35;;;21.90;90.50;;;;;;5075532;28;20028;-61
2021/03/19 12:33:40;;;;;;;4.97;1.90;;;21.90;90.50;;;;;;5075309;28;20025;-59
2021/03/19 12:36:09;;;;;;;6.72;2.10;;;21.90;90.60;;;;;;5075205;28;20039;-62
2021/03/19 12:38:37;;;;;;;6.03;2.17;;;21.90;90.60;;;;;;5075342;28;20063;-59
2021/03/19 12:41:05;;;;;;;7.30;2.22;;;21.90;90.60;;;;;;5075589;28;20102;-62
2021/03/19 12:43:32;;;;;;;4.88;2.15;;;21.80;90.50;;;;;;5075186;28;20067;-63
2021/03/19 12:46:00;;;;;;;5.60;2.25;;;21.80;90.50;;;;;;5074993;28;20368;-62
2021/03/19 12:48:27;;;;;;;5.57;2.13;;;21.90;90.60;;;;;;5074967;28;20033;-62
2021/03/19 12:50:54;;;;;;;6.57;2.40;;;21.80;90.60;;;;;;5074867;28;20135;-59
2021/03/19 12:56:44;;;;;;;9.43;3.25;;;21.90;90.60;;;;;;5075013;28;20553;-63
2021/03/19 12:59:11;;;;;;;5.32;2.03;;;21.90;90.60;;;;;;5074923;28;20024;-59
2021/03/19 13:01:38;;;;;;;6.88;2.25;;;21.90;90.60;;;;;;5074733;28;20028;-58
2021/03/19 13:04:07;;;;;;;10.30;2.80;;;21.80;90.50;;;;;;5074402;28;20052;-60
2021/03/19 13:06:36;;;;;;;6.30;2.10;;;21.90;90.60;;;;;;5074313;28;20051;-58
2021/03/19 13:09:10;;;;;;;7.03;2.50;;;21.80;90.50;;;;;;5053202;28;20041;-60
2021/03/19 13:11:38;;;;;;;7.38;2.40;;;21.90;90.50;;;;;;5064798;28;20035;-54
2021/03/19 13:14:06;;;;;;;6.90;2.22;;;21.80;90.50;;;;;;5070649;28;20028;-58
2021/03/19 13:16:34;;;;;;;5.38;1.75;;;21.90;90.50;;;;;;5072360;28;20024;-59
2021/03/19 13:19:01;;;;;;;6.70;2.33;;;21.90;90.50;;;;;;5072774;28;20534;-56
2021/03/19 13:21:29;;;;;;;6.25;2.30;;;21.90;90.50;;;;;;5069711;28;20107;-57
2021/03/19 13:24:01;;;;;;;5.40;2.15;;;21.90;90.50;;;;;;5072824;28;20033;-60
2021/03/19 13:26:29;;;;;;;5.57;1.88;;;21.90;90.50;;;;;;5072620;28;20032;-58
2021/03/19 13:28:57;;;;;;;5.35;2.47;;;21.90;90.50;;;;;;5072628;28;20028;-55
2021/03/19 13:31:24;;;;;;;8.15;2.70;;;21.90;90.50;;;;;;5067434;28;20063;-61
2021/03/19 13:33:52;;;;;;;6.93;2.67;;;21.90;90.50;;;;;;5072533;28;20025;-61
2021/03/19 13:36:19;;;;;;;5.05;2.10;;;21.90;90.50;;;;;;5071724;28;20024;-60
2021/03/19 13:38:47;;;;;;;7.63;2.42;;;21.90;90.40;;;;;;5072353;28;20032;-58